Time;durP1;ratioP1;P1;durP2;ratioP2;P2;SDS_P1;SDS_P2;PMS_P1;PMS_P2;Temp;Humidity;BMP_temperature;BMP_pressure;BME280_temperature;BME280_humidity;BME280_pressure;Samples;Min_cycle;Max_cycle;Signal;HPM_P1;HPM_P2
2022/07/10 00:00:17;;;;;;;6.45;0.82;;;14.40;99.90;;;;;;5072678;28;20541;-41
2022/07/10 00:02:43;;;;;;;5.50;0.90;;;14.40;99.90;;;;;;5072312;28;20411;-41
2022/07/10 00:05:10;;;;;;;5.95;0.85;;;14.50;99.90;;;;;;5073010;28;20033;-41
2022/07/10 00:07:36;;;;;;;7.15;1.15;;;14.50;99.90;;;;;;5054675;28;20441;-41
2022/07/10 00:10:03;;;;;;;5.30;0.98;;;14.40;99.90;;;;;;5072771;28;20052;-41
2022/07/10 00:12:29;;;;;;;6.47;1.13;;;14.50;99.90;;;;;;5072068;28;20040;-41
2022/07/10 00:14:55;;;;;;;8.32;1.10;;;14.50;99.90;;;;;;5074075;28;20032;-41
2022/07/10 00:17:21;;;;;;;5.30;1.00;;;14.40;99.90;;;;;;5056364;28;20503;-42
2022/07/10 00:19:47;;;;;;;7.93;1.25;;;14.40;99.90;;;;;;5072569;28;20050;-41
2022/07/10 00:22:12;;;;;;;6.28;1.30;;;14.40;99.90;;;;;;5071830;28;20044;-41
2022/07/10 00:24:38;;;;;;;6.97;1.00;;;14.40;99.90;;;;;;5057470;28;20059;-41
2022/07/10 00:27:04;;;;;;;8.02;0.90;;;14.40;99.90;;;;;;5063552;28;20055;-42
2022/07/10 00:29:30;;;;;;;6.10;1.30;;;14.40;99.90;;;;;;5092217;28;20040;-41
2022/07/10 00:31:55;;;;;;;9.48;1.05;;;14.40;99.90;;;;;;5091426;28;20108;-41
2022/07/10 00:34:21;;;;;;;7.40;1.00;;;14.40;99.90;;;;;;5087771;28;20048;-41
2022/07/10 00:36:47;;;;;;;10.68;1.70;;;14.40;99.90;;;;;;5057087;28;20450;-41
2022/07/10 00:39:12;;;;;;;8.52;1.60;;;14.40;99.90;;;;;;5071647;28;20648;-41
2022/07/10 00:41:38;;;;;;;7.43;0.82;;;14.50;99.90;;;;;;5071919;28;20051;-41
2022/07/10 00:44:04;;;;;;;7.63;1.35;;;14.40;99.90;;;;;;5082369;28;20045;-41
2022/07/10 00:46:31;;;;;;;7.03;1.67;;;14.40;99.90;;;;;;5059579;28;20472;-41
2022/07/10 00:48:57;;;;;;;7.82;1.02;;;14.40;99.90;;;;;;5070307;28;20044;-41
2022/07/10 00:51:30;;;;;;;7.63;1.60;;;14.40;99.90;;;;;;5090551;28;20556;-41
2022/07/10 00:53:56;;;;;;;8.65;1.63;;;14.40;99.90;;;;;;5091243;28;20507;-41
2022/07/10 00:56:27;;;;;;;8.05;1.40;;;14.40;99.90;;;;;;5079187;28;20040;-42
2022/07/10 00:58:53;;;;;;;9.70;1.65;;;14.40;99.90;;;;;;5087936;28;20123;-42
2022/07/10 01:01:22;;;;;;;6.60;0.95;;;14.40;99.90;;;;;;5091981;28;20507;-41
2022/07/10 01:03:48;;;;;;;7.43;1.15;;;14.30;99.90;;;;;;5073261;28;20059;-41
2022/07/10 01:06:15;;;;;;;7.05;1.15;;;14.30;99.90;;;;;;5062154;28;20044;-41
2022/07/10 01:08:41;;;;;;;6.80;1.05;;;14.30;99.90;;;;;;5064337;28;20079;-42
2022/07/10 01:11:08;;;;;;;7.03;1.00;;;14.20;99.90;;;;;;5071949;28;20229;-41
2022/07/10 01:13:34;;;;;;;6.95;0.93;;;14.20;99.90;;;;;;5070975;28;20400;-41
2022/07/10 01:16:00;;;;;;;7.63;1.00;;;14.20;99.90;;;;;;5073570;28;20050;-42
2022/07/10 01:18:26;;;;;;;5.43;0.80;;;14.20;99.90;;;;;;5054957;28;20048;-41
2022/07/10 01:20:53;;;;;;;6.75;0.98;;;14.10;99.90;;;;;;5071377;28;20044;-41
2022/07/10 01:23:19;;;;;;;4.57;0.85;;;14.10;99.90;;;;;;5069042;28;20438;-41
2022/07/10 01:25:44;;;;;;;8.63;0.82;;;14.10;99.90;;;;;;5061950;28;20131;-41
2022/07/10 01:28:10;;;;;;;5.05;0.60;;;14.10;99.90;;;;;;5054871;28;20158;-41
2022/07/10 01:30:35;;;;;;;4.85;0.82;;;14.10;99.90;;;;;;5071244;28;20462;-41
2022/07/10 01:33:01;;;;;;;6.50;1.10;;;14.00;99.90;;;;;;5070184;28;20491;-41
2022/07/10 01:35:27;;;;;;;7.03;0.90;;;13.90;99.90;;;;;;5083499;28;20048;-41
2022/07/10 01:37:52;;;;;;;6.35;0.93;;;13.90;99.90;;;;;;5067259;28;20039;-41
2022/07/10 01:40:18;;;;;;;9.35;1.08;;;14.10;99.90;;;;;;5083048;28;20040;-41
2022/07/10 01:42:45;;;;;;;6.82;0.75;;;13.90;99.90;;;;;;5070376;28;20086;-41
2022/07/10 01:45:11;;;;;;;7.13;0.88;;;13.90;99.90;;;;;;5065528;28;20051;-41
2022/07/10 01:47:37;;;;;;;6.30;1.00;;;13.90;99.90;;;;;;5055801;28;20522;-41
2022/07/10 01:50:04;;;;;;;5.25;0.70;;;13.80;99.90;;;;;;5091330;28;20044;-41
2022/07/10 01:52:29;;;;;;;7.50;0.80;;;13.80;99.90;;;;;;5082474;28;20123;-41
2022/07/10 01:54:55;;;;;;;7.85;0.90;;;13.80;99.90;;;;;;5070736;28;20139;-41
2022/07/10 01:57:21;;;;;;;7.50;1.10;;;13.80;99.90;;;;;;5054055;28;20468;-42
2022/07/10 01:59:47;;;;;;;6.70;0.95;;;13.80;99.90;;;;;;5070149;28;20188;-41
2022/07/10 02:02:12;;;;;;;5.13;0.70;;;13.80;99.90;;;;;;5069882;28;20048;-42
2022/07/10 02:04:41;;;;;;;7.63;1.05;;;13.80;99.90;;;;;;5070746;28;20040;-42
2022/07/10 02:07:11;;;;;;;6.80;0.80;;;13.80;99.90;;;;;;5054327;28;20048;-42
2022/07/10 02:09:40;;;;;;;8.60;1.23;;;13.70;99.90;;;;;;5070384;28;20036;-41
2022/07/10 02:12:08;;;;;;;5.47;0.90;;;13.70;99.90;;;;;;5069746;28;20044;-42
2022/07/10 02:14:34;;;;;;;9.05;1.23;;;13.70;99.90;;;;;;5069982;28;20078;-41
2022/07/10 02:16:59;;;;;;;10.50;1.10;;;13.70;99.90;;;;;;5058937;28;20428;-41
2022/07/10 02:19:25;;;;;;;5.78;0.95;;;13.70;99.90;;;;;;5089624;28;20051;-41
2022/07/10 02:21:51;;;;;;;8.88;1.10;;;13.70;99.90;;;;;;5090309;28;20521;-41
2022/07/10 02:24:17;;;;;;;10.27;1.38;;;13.70;99.90;;;;;;5070180;28;20060;-41
2022/07/10 02:26:43;;;;;;;8.45;1.13;;;13.70;99.90;;;;;;5055966;28;20041;-42
2022/07/10 02:29:09;;;;;;;4.97;1.00;;;13.70;99.90;;;;;;5069356;28;20048;-41
2022/07/10 02:31:40;;;;;;;8.00;1.48;;;13.70;99.90;;;;;;5090143;28;20059;-41
2022/07/10 02:34:06;;;;;;;5.80;1.15;;;13.70;99.90;;;;;;5089553;28;20039;-42
2022/07/10 02:36:32;;;;;;;8.18;0.98;;;13.70;99.90;;;;;;5075586;28;20593;-41
2022/07/10 02:38:57;;;;;;;10.98;1.25;;;13.70;99.90;;;;;;5069866;28;20036;-41
2022/07/10 02:41:23;;;;;;;9.25;1.40;;;13.70;99.90;;;;;;5069578;28;20056;-41
2022/07/10 02:43:49;;;;;;;10.63;1.10;;;13.70;99.90;;;;;;5069234;28;20068;-42
2022/07/10 02:46:14;;;;;;;11.50;1.25;;;13.70;99.90;;;;;;5042709;28;20048;-42
2022/07/10 02:48:40;;;;;;;5.93;0.93;;;13.70;99.90;;;;;;5075233;28;20048;-42
2022/07/10 02:51:05;;;;;;;6.90;1.08;;;13.80;99.90;;;;;;5090447;28;20044;-41
2022/07/10 02:53:31;;;;;;;11.77;1.33;;;13.70;99.90;;;;;;5080670;28;20037;-41
2022/07/10 02:55:57;;;;;;;8.15;1.13;;;13.70;99.90;;;;;;5070116;28;20503;-41
2022/07/10 02:58:23;;;;;;;4.97;0.95;;;13.80;99.90;;;;;;5053679;28;20442;-42
2022/07/10 03:00:48;;;;;;;8.88;1.08;;;13.80;99.90;;;;;;5069137;28;20052;-41
2022/07/10 03:03:17;;;;;;;7.22;1.23;;;13.80;99.90;;;;;;5069367;28;20468;-42
2022/07/10 03:05:45;;;;;;;11.20;1.38;;;13.80;99.90;;;;;;5089782;28;20551;-41
2022/07/10 03:08:12;;;;;;;6.47;1.45;;;13.80;99.90;;;;;;5060248;28;20048;-41
2022/07/10 03:10:38;;;;;;;8.18;1.30;;;13.90;99.90;;;;;;5069679;28;20033;-42
2022/07/10 03:13:03;;;;;;;7.57;1.27;;;13.90;99.90;;;;;;5068863;28;20091;-42
2022/07/10 03:15:29;;;;;;;8.68;1.40;;;13.80;99.90;;;;;;5075805;28;20071;-41
2022/07/10 03:17:55;;;;;;;7.35;1.20;;;13.90;99.90;;;;;;5072226;28;20032;-41
2022/07/10 03:20:21;;;;;;;11.80;1.10;;;13.90;99.90;;;;;;5090285;28;20051;-41
2022/07/10 03:22:46;;;;;;;7.50;0.95;;;14.00;99.90;;;;;;5089161;28;20169;-41
2022/07/10 03:25:13;;;;;;;9.35;0.95;;;14.00;99.90;;;;;;5072864;28;20162;-41
2022/07/10 03:27:39;;;;;;;6.43;1.20;;;14.00;99.90;;;;;;5057666;28;20032;-41
2022/07/10 03:30:06;;;;;;;6.78;1.35;;;14.00;99.90;;;;;;5093780;28;20028;-41
2022/07/10 03:32:32;;;;;;;7.80;1.20;;;14.10;99.90;;;;;;5076799;28;20055;-42
2022/07/10 03:34:57;;;;;;;6.97;1.10;;;14.10;99.90;;;;;;5073726;28;20124;-41
2022/07/10 03:37:23;;;;;;;6.63;1.00;;;14.10;99.90;;;;;;5057833;28;20198;-41
2022/07/10 03:39:49;;;;;;;7.30;0.88;;;14.20;99.90;;;;;;5081343;28;20047;-41
2022/07/10 03:42:14;;;;;;;8.70;1.30;;;14.20;99.90;;;;;;5081067;28;20076;-41
2022/07/10 03:44:40;;;;;;;11.82;1.98;;;14.20;99.90;;;;;;5088110;28;20087;-41
2022/07/10 03:47:06;;;;;;;8.18;0.90;;;14.30;99.90;;;;;;5057023;28;20044;-42
2022/07/10 03:49:32;;;;;;;15.88;1.98;;;14.30;99.90;;;;;;5092121;28;20044;-42
2022/07/10 03:52:01;;;;;;;5.82;1.52;;;14.30;99.90;;;;;;5081197;28;20606;-41
2022/07/10 03:54:28;;;;;;;7.80;1.15;;;14.40;99.90;;;;;;5071860;28;20044;-41
2022/07/10 03:59:38;;;;;;;5.22;1.00;;;14.40;99.90;;;;;;5060691;28;20111;-41
2022/07/10 04:02:04;;;;;;;10.93;1.70;;;14.40;99.90;;;;;;5074551;28;20519;-43
2022/07/10 04:04:30;;;;;;;5.63;1.17;;;14.50;99.90;;;;;;5083820;28;20075;-41
2022/07/10 04:06:56;;;;;;;10.65;1.33;;;14.40;99.90;;;;;;5057058;28;20174;-41
2022/07/10 04:09:22;;;;;;;6.10;1.42;;;14.50;99.90;;;;;;5071893;28;20463;-41
2022/07/10 04:11:48;;;;;;;10.25;1.45;;;14.50;99.90;;;;;;5087237;28;20051;-41
2022/07/10 04:14:13;;;;;;;8.32;1.20;;;14.50;99.90;;;;;;5091982;28;20044;-41
2022/07/10 04:16:39;;;;;;;11.82;1.48;;;14.50;99.90;;;;;;5058531;28;20132;-41
2022/07/10 04:19:05;;;;;;;9.88;1.33;;;14.50;99.90;;;;;;5069858;28;20068;-42
2022/07/10 04:21:30;;;;;;;7.75;1.65;;;14.60;99.90;;;;;;5072144;28;20086;-41
2022/07/10 04:23:56;;;;;;;11.82;1.55;;;14.60;99.90;;;;;;5087048;28;20056;-41
2022/07/10 04:26:22;;;;;;;6.97;1.27;;;14.60;99.90;;;;;;5061272;28;20079;-41
2022/07/10 04:28:47;;;;;;;9.05;1.88;;;14.60;99.90;;;;;;5067241;28;20457;-41
2022/07/10 04:31:13;;;;;;;9.10;1.65;;;14.70;99.90;;;;;;5072041;28;20446;-41
2022/07/10 04:33:39;;;;;;;11.55;1.48;;;14.70;99.90;;;;;;5071548;28;20072;-41
2022/07/10 04:36:05;;;;;;;9.05;1.55;;;14.70;99.90;;;;;;5072296;28;20037;-41
2022/07/10 04:38:31;;;;;;;7.55;1.42;;;14.80;99.90;;;;;;5054496;28;20044;-41
2022/07/10 04:40:57;;;;;;;15.27;2.25;;;14.80;99.90;;;;;;5086637;28;20048;-41
2022/07/10 04:43:23;;;;;;;13.80;1.67;;;14.80;99.90;;;;;;5081562;28;20505;-41
2022/07/10 04:45:49;;;;;;;12.25;1.70;;;14.80;99.90;;;;;;5092759;28;20052;-41
2022/07/10 04:48:14;;;;;;;12.02;1.67;;;14.80;99.90;;;;;;5055460;28;20048;-42
2022/07/10 04:50:40;;;;;;;11.90;1.50;;;14.90;99.90;;;;;;5087704;28;20208;-41
2022/07/10 04:53:06;;;;;;;7.90;1.40;;;14.90;99.90;;;;;;5091664;28;20044;-41
2022/07/10 04:55:32;;;;;;;7.80;1.25;;;14.90;99.90;;;;;;5090003;28;20135;-41
2022/07/10 04:57:58;;;;;;;9.55;1.48;;;14.90;99.90;;;;;;5055591;28;20538;-42
2022/07/10 05:00:23;;;;;;;8.30;1.02;;;14.90;99.90;;;;;;5071127;28;20136;-42
2022/07/10 05:02:49;;;;;;;6.45;0.90;;;14.90;99.90;;;;;;5068361;28;20045;-41
2022/07/10 05:05:15;;;;;;;9.00;1.08;;;14.90;99.90;;;;;;5057673;28;20132;-41
2022/07/10 05:07:40;;;;;;;5.97;0.82;;;14.90;99.90;;;;;;5040787;28;20056;-41
2022/07/10 05:10:06;;;;;;;7.78;0.98;;;14.90;99.90;;;;;;5068768;28;20063;-41
2022/07/10 05:12:32;;;;;;;5.00;1.08;;;15.00;99.90;;;;;;5062691;28;20037;-42
2022/07/10 05:14:59;;;;;;;10.68;1.35;;;15.00;99.90;;;;;;5080921;28;20071;-42
2022/07/10 05:17:26;;;;;;;7.40;1.20;;;15.00;99.90;;;;;;5052870;28;20044;-42
2022/07/10 05:19:53;;;;;;;9.15;1.50;;;15.00;99.90;;;;;;5058110;28;20097;-41
2022/07/10 05:22:19;;;;;;;7.57;1.48;;;15.10;99.90;;;;;;5067476;28;20044;-42
2022/07/10 05:24:44;;;;;;;7.80;1.20;;;15.10;99.90;;;;;;5060968;28;20048;-41
2022/07/10 05:27:10;;;;;;;8.52;1.48;;;15.10;99.90;;;;;;5054136;28;20101;-42
2022/07/10 05:29:36;;;;;;;10.73;1.00;;;15.20;99.90;;;;;;5063844;28;20537;-42
2022/07/10 05:32:02;;;;;;;6.50;1.67;;;15.20;99.90;;;;;;5081999;28;20170;-41
2022/07/10 05:34:27;;;;;;;7.50;1.40;;;15.20;99.90;;;;;;5090493;28;20044;-41
2022/07/10 05:36:53;;;;;;;11.40;1.60;;;15.20;99.90;;;;;;5091008;28;20055;-42
2022/07/10 05:39:19;;;;;;;8.95;1.30;;;15.30;99.90;;;;;;5070767;28;20048;-41
2022/07/10 05:41:44;;;;;;;10.75;1.38;;;15.30;99.90;;;;;;5069379;28;20048;-41
2022/07/10 05:44:10;;;;;;;6.53;1.10;;;15.30;99.90;;;;;;5073097;28;20052;-41
2022/07/10 05:46:36;;;;;;;7.65;1.40;;;15.30;99.90;;;;;;5056606;28;20497;-41
2022/07/10 05:49:01;;;;;;;6.97;1.02;;;15.40;99.90;;;;;;5068082;28;20052;-42
2022/07/10 05:51:27;;;;;;;10.30;1.20;;;15.30;99.90;;;;;;5079094;28;20126;-41
2022/07/10 05:53:53;;;;;;;9.98;1.15;;;15.40;99.90;;;;;;5090604;28;20411;-41
2022/07/10 05:56:18;;;;;;;8.95;1.35;;;15.30;99.90;;;;;;5068374;28;20050;-41
2022/07/10 05:58:44;;;;;;;7.57;1.30;;;15.30;99.90;;;;;;5084957;28;20087;-42
2022/07/10 06:01:10;;;;;;;8.10;1.30;;;15.30;99.90;;;;;;5091012;28;20052;-41
2022/07/10 06:03:35;;;;;;;6.28;1.25;;;15.30;99.90;;;;;;5089922;28;20423;-41
2022/07/10 06:06:01;;;;;;;7.53;1.38;;;15.30;99.90;;;;;;5090875;28;20125;-41
2022/07/10 06:08:27;;;;;;;10.38;1.33;;;15.40;99.90;;;;;;5067231;28;20388;-41
2022/07/10 06:10:52;;;;;;;11.13;2.17;;;15.40;99.90;;;;;;5070243;28;20102;-41
2022/07/10 06:13:18;;;;;;;8.52;1.63;;;15.40;99.90;;;;;;5069696;28;20048;-41
2022/07/10 06:15:44;;;;;;;7.18;1.45;;;15.50;99.90;;;;;;5068761;28;20451;-41
2022/07/10 06:18:10;;;;;;;5.50;1.13;;;15.50;99.90;;;;;;5054251;28;20066;-41
2022/07/10 06:20:35;;;;;;;5.47;1.27;;;15.50;99.90;;;;;;5068821;28;20528;-41
2022/07/10 06:23:01;;;;;;;11.02;1.40;;;15.60;99.90;;;;;;5069386;28;20052;-42
2022/07/10 06:25:27;;;;;;;7.57;1.58;;;15.60;99.90;;;;;;5079774;28;20075;-41
2022/07/10 06:27:52;;;;;;;5.05;0.85;;;15.60;99.90;;;;;;5074190;28;20047;-41
2022/07/10 06:30:18;;;;;;;6.00;0.88;;;15.60;99.90;;;;;;5105728;28;20055;-41
2022/07/10 06:32:44;;;;;;;3.75;0.68;;;15.70;99.90;;;;;;5089693;28;20054;-41
2022/07/10 06:35:10;;;;;;;6.10;1.15;;;15.70;99.90;;;;;;5090596;28;20048;-41
2022/07/10 06:37:36;;;;;;;6.18;0.52;;;15.80;99.90;;;;;;5068607;28;20076;-42
2022/07/10 06:40:01;;;;;;;5.07;0.75;;;15.80;99.90;;;;;;5079689;28;20101;-41
2022/07/10 06:42:27;;;;;;;4.43;0.80;;;15.90;99.90;;;;;;5077939;28;20048;-41
2022/07/10 06:44:53;;;;;;;6.22;0.90;;;15.90;99.90;;;;;;5080781;28;20040;-41
2022/07/10 06:50:06;;;;;;;5.13;0.60;;;15.90;99.90;;;;;;5070163;28;20048;-41
2022/07/10 06:52:33;;;;;;;4.32;0.85;;;16.00;99.90;;;;;;5067869;28;20052;-41
2022/07/10 06:54:59;;;;;;;7.35;1.00;;;16.00;99.90;;;;;;5070229;28;20100;-41
2022/07/10 06:57:25;;;;;;;5.57;0.80;;;16.00;99.90;;;;;;5053517;28;20089;-42
2022/07/10 06:59:52;;;;;;;5.65;0.88;;;16.00;99.90;;;;;;5069716;28;20616;-41
2022/07/10 07:02:18;;;;;;;5.38;1.10;;;16.00;99.90;;;;;;5073246;28;20084;-41
2022/07/10 07:04:47;;;;;;;4.70;1.02;;;15.90;99.90;;;;;;5073753;28;20087;-41
2022/07/10 07:07:13;;;;;;;6.00;0.90;;;15.90;99.90;;;;;;5057989;28;20127;-42
2022/07/10 07:09:40;;;;;;;8.68;1.23;;;15.90;99.90;;;;;;5084699;28;20051;-42
2022/07/10 07:12:07;;;;;;;4.32;0.80;;;15.80;99.90;;;;;;5093760;28;20116;-42
2022/07/10 07:14:33;;;;;;;5.30;0.93;;;15.80;99.90;;;;;;5091257;28;20036;-41
2022/07/10 07:17:03;;;;;;;6.32;1.00;;;15.80;99.90;;;;;;5058367;28;20047;-42
2022/07/10 07:19:32;;;;;;;4.20;0.80;;;15.90;99.90;;;;;;5072829;28;20045;-41
2022/07/10 07:25:05;;;;;;;5.10;1.10;;;15.80;99.90;;;;;;5020552;28;20100;-43
2022/07/10 07:27:32;;;;;;;6.07;0.98;;;15.80;99.90;;;;;;5014604;28;20128;-42
2022/07/10 07:30:08;;;;;;;6.78;1.17;;;15.80;99.90;;;;;;5050836;28;20102;-43
2022/07/10 07:32:34;;;;;;;6.15;0.90;;;15.80;99.90;;;;;;5072420;28;20407;-43
2022/07/10 07:35:01;;;;;;;6.93;1.00;;;15.80;99.90;;;;;;5073540;28;20032;-41
2022/07/10 07:37:44;;;;;;;6.65;0.88;;;15.90;99.90;;;;;;5058698;28;20576;-44
2022/07/10 07:40:19;;;;;;;6.13;1.00;;;15.90;99.90;;;;;;5073194;28;20130;-41
2022/07/10 07:42:46;;;;;;;4.88;0.80;;;15.90;99.90;;;;;;5072688;28;20040;-41
2022/07/10 07:45:11;;;;;;;4.15;0.80;;;16.00;99.90;;;;;;5073098;28;20064;-41
2022/07/10 07:47:46;;;;;;;7.88;1.23;;;16.10;99.90;;;;;;5056238;28;20068;-42
2022/07/10 07:50:19;;;;;;;4.43;0.98;;;16.10;99.90;;;;;;5084675;28;20048;-41
2022/07/10 07:52:46;;;;;;;4.43;1.00;;;16.20;99.90;;;;;;5085671;28;20047;-41
2022/07/10 07:55:14;;;;;;;4.63;0.77;;;16.20;99.90;;;;;;5073006;28;20116;-41
2022/07/10 07:57:40;;;;;;;7.35;0.75;;;16.30;99.90;;;;;;5056778;28;20094;-42
2022/07/10 08:00:08;;;;;;;4.55;0.60;;;16.30;99.90;;;;;;5072617;28;20077;-41
2022/07/10 08:02:34;;;;;;;6.13;0.55;;;16.40;99.90;;;;;;5072313;28;20459;-42
2022/07/10 08:05:00;;;;;;;1.40;0.30;;;16.40;99.90;;;;;;5072644;28;20048;-41
2022/07/10 08:07:39;;;;;;;2.92;0.30;;;16.40;99.90;;;;;;5056899;28;20055;-42
2022/07/10 08:10:07;;;;;;;1.10;0.30;;;16.40;99.90;;;;;;5071184;28;20048;-41
2022/07/10 08:12:33;;;;;;;2.67;0.45;;;16.40;99.90;;;;;;5070973;28;20041;-41
2022/07/10 08:14:59;;;;;;;1.30;0.20;;;16.40;99.90;;;;;;5075386;28;20039;-42
2022/07/10 08:17:26;;;;;;;3.72;0.30;;;16.40;99.90;;;;;;5076881;28;20040;-41
2022/07/10 08:19:52;;;;;;;1.10;0.20;;;16.40;99.90;;;;;;5092063;28;20490;-42
2022/07/10 08:22:18;;;;;;;3.28;0.25;;;16.40;99.90;;;;;;5081703;28;20107;-41
2022/07/10 08:24:44;;;;;;;2.72;0.10;;;16.40;99.90;;;;;;5072092;28;20044;-41
2022/07/10 08:27:09;;;;;;;1.60;0.28;;;16.40;99.90;;;;;;5057050;28;20116;-41
2022/07/10 08:29:35;;;;;;;2.63;0.50;;;16.30;99.90;;;;;;5071380;28;20093;-41
2022/07/10 08:32:01;;;;;;;3.83;0.47;;;16.40;99.90;;;;;;5072412;28;20452;-41
2022/07/10 08:34:27;;;;;;;4.13;0.52;;;16.40;99.90;;;;;;5071367;28;20041;-41
2022/07/10 08:36:53;;;;;;;2.58;0.50;;;16.40;99.90;;;;;;5057011;28;20056;-42
2022/07/10 08:39:21;;;;;;;2.40;0.30;;;16.40;99.90;;;;;;5071657;28;20040;-42
2022/07/10 08:41:50;;;;;;;2.33;0.35;;;16.40;99.90;;;;;;5072436;28;20395;-41
2022/07/10 08:44:19;;;;;;;4.78;0.68;;;16.30;99.90;;;;;;5070852;28;20059;-41
2022/07/10 08:46:45;;;;;;;3.83;0.60;;;16.40;99.90;;;;;;5056862;28;20056;-42
2022/07/10 08:49:13;;;;;;;6.20;0.80;;;16.40;99.90;;;;;;5070832;28;21001;-41
2022/07/10 08:52:03;;;;;;;5.60;0.70;;;16.40;99.90;;;;;;5050218;28;20040;-41
2022/07/10 08:54:30;;;;;;;5.90;0.55;;;16.50;99.90;;;;;;5074703;28;20049;-41
2022/07/10 08:56:57;;;;;;;7.68;0.85;;;16.50;99.90;;;;;;5046844;28;20037;-42
2022/07/10 08:59:23;;;;;;;5.43;0.73;;;16.40;99.90;;;;;;5066894;28;20060;-42
2022/07/10 09:01:49;;;;;;;5.90;0.85;;;16.40;99.90;;;;;;5065268;28;20057;-41
2022/07/10 09:04:22;;;;;;;7.68;1.00;;;16.40;99.90;;;;;;5060467;28;20040;-41
2022/07/10 09:06:49;;;;;;;7.43;0.77;;;16.30;99.90;;;;;;5045023;28;20049;-41
2022/07/10 09:09:14;;;;;;;3.22;0.80;;;16.30;99.90;;;;;;5050705;28;20052;-41
2022/07/10 09:11:42;;;;;;;4.13;1.00;;;16.20;99.90;;;;;;5050640;28;20163;-41
2022/07/10 09:14:13;;;;;;;2.65;0.60;;;16.10;99.90;;;;;;5049597;28;20045;-41
2022/07/10 09:16:50;;;;;;;3.42;0.85;;;15.90;99.90;;;;;;5036140;28;20567;-42
2022/07/10 09:19:23;;;;;;;2.28;0.70;;;15.90;99.90;;;;;;5046945;28;20127;-42
2022/07/10 09:21:54;;;;;;;3.38;1.00;;;15.80;99.90;;;;;;5048880;28;20482;-41
2022/07/10 09:24:22;;;;;;;8.07;1.35;;;15.70;99.90;;;;;;5049690;28;20049;-41
2022/07/10 09:26:58;;;;;;;2.55;0.80;;;15.70;99.90;;;;;;5041259;28;20040;-41
2022/07/10 09:29:24;;;;;;;2.58;1.10;;;15.60;99.90;;;;;;5058815;28;20045;-40
2022/07/10 09:31:57;;;;;;;5.22;1.17;;;15.60;99.90;;;;;;5049892;28;20041;-41
2022/07/10 09:34:37;;;;;;;5.35;1.38;;;15.60;99.90;;;;;;5052044;28;20440;-40
2022/07/10 09:37:17;;;;;;;5.80;1.10;;;15.70;99.90;;;;;;5030341;28;20048;-41
2022/07/10 09:40:01;;;;;;;6.78;1.00;;;15.70;99.90;;;;;;5047978;28;20055;-41
2022/07/10 09:42:38;;;;;;;6.10;1.45;;;15.70;99.90;;;;;;5049422;28;20056;-41
2022/07/10 09:45:10;;;;;;;7.53;1.38;;;15.70;99.90;;;;;;5055144;28;20040;-42
2022/07/10 09:47:36;;;;;;;8.48;1.70;;;15.80;99.90;;;;;;5031737;28;20040;-41
2022/07/10 09:50:03;;;;;;;4.47;1.30;;;15.80;99.90;;;;;;5045408;28;20067;-41
2022/07/10 09:52:29;;;;;;;5.93;1.10;;;15.90;99.90;;;;;;5045810;28;20062;-41
2022/07/10 09:54:56;;;;;;;6.05;1.27;;;15.90;99.90;;;;;;5047452;28;20684;-41
2022/07/10 09:57:25;;;;;;;5.13;1.25;;;16.00;99.90;;;;;;5034124;28;20040;-41
2022/07/10 09:59:53;;;;;;;5.75;1.25;;;16.00;99.90;;;;;;5049847;28;20060;-41
2022/07/10 10:02:20;;;;;;;12.57;1.60;;;16.00;99.90;;;;;;5045862;28;20106;-41
2022/07/10 10:04:49;;;;;;;8.77;1.83;;;16.00;99.90;;;;;;5049007;28;20494;-40
2022/07/10 10:07:18;;;;;;;7.78;1.90;;;16.00;99.90;;;;;;5029354;28;20094;-41
2022/07/10 10:09:56;;;;;;;4.95;1.67;;;16.10;99.90;;;;;;5044505;28;20159;-41
2022/07/10 10:12:39;;;;;;;7.63;1.98;;;16.10;99.90;;;;;;5045848;28;20606;-42
2022/07/10 10:15:06;;;;;;;6.90;1.63;;;16.00;99.90;;;;;;5048592;28;20083;-40
2022/07/10 10:17:32;;;;;;;9.80;1.63;;;16.10;99.90;;;;;;5030302;28;20083;-42
2022/07/10 10:22:48;;;;;;;10.82;1.92;;;16.20;99.90;;;;;;5049048;28;20055;-41
2022/07/10 10:25:19;;;;;;;9.20;1.70;;;16.10;99.90;;;;;;5049593;28;20045;-41
2022/07/10 10:27:45;;;;;;;5.53;1.73;;;16.20;99.90;;;;;;5032560;28;21010;-41
2022/07/10 10:30:11;;;;;;;11.15;2.13;;;16.20;99.90;;;;;;5055113;28;20504;-41
2022/07/10 10:32:40;;;;;;;6.60;1.90;;;16.30;99.90;;;;;;5057662;28;20480;-41
2022/07/10 10:35:09;;;;;;;8.60;1.88;;;16.30;99.90;;;;;;5047373;28;20067;-41
2022/07/10 10:37:43;;;;;;;8.93;1.65;;;16.40;99.90;;;;;;5034221;28;20045;-41
2022/07/10 10:40:11;;;;;;;10.18;2.05;;;16.40;99.90;;;;;;5045399;28;20106;-41
2022/07/10 10:42:44;;;;;;;5.05;1.25;;;16.30;99.90;;;;;;5051982;28;20049;-42
2022/07/10 10:45:29;;;;;;;6.25;1.45;;;16.40;99.90;;;;;;5054513;28;20113;-41
2022/07/10 10:48:14;;;;;;;8.82;1.50;;;16.40;99.90;;;;;;5050089;28;20063;-41
2022/07/10 10:50:49;;;;;;;4.82;1.35;;;16.40;99.90;;;;;;5067192;28;20040;-41
2022/07/10 10:53:20;;;;;;;7.10;1.67;;;16.40;99.90;;;;;;5066148;28;20083;-41
2022/07/10 10:56:04;;;;;;;6.85;1.48;;;16.50;99.90;;;;;;5067001;28;20060;-41
2022/07/10 10:58:41;;;;;;;5.70;1.17;;;16.50;99.90;;;;;;5031498;28;20053;-41
2022/07/10 11:01:25;;;;;;;6.07;1.10;;;16.60;99.90;;;;;;5049363;28;20045;-41
2022/07/10 11:04:09;;;;;;;6.20;1.48;;;16.70;99.90;;;;;;5049815;28;20055;-41
2022/07/10 11:06:42;;;;;;;5.20;0.98;;;16.90;99.90;;;;;;5033354;28;20514;-41
2022/07/10 11:09:25;;;;;;;3.83;1.10;;;16.80;99.90;;;;;;5047755;28;20052;-41
2022/07/10 11:12:08;;;;;;;8.30;1.23;;;16.90;99.90;;;;;;5052012;28;20036;-41
2022/07/10 11:14:39;;;;;;;6.10;1.17;;;16.90;99.90;;;;;;5050590;28;20517;-41
2022/07/10 11:17:05;;;;;;;;;;;16.90;99.90;;;;;;5032806;28;20080;-41
2022/07/10 11:19:32;;;;;;;3.00;0.98;;;16.70;99.90;;;;;;5047291;28;19924;-41
2022/07/10 11:22:19;;;;;;;5.55;1.00;;;16.80;99.90;;;;;;5031434;28;20051;-41
2022/07/10 11:24:59;;;;;;;3.45;0.93;;;16.80;99.90;;;;;;5063423;28;20041;-41
2022/07/10 11:27:55;;;;;;;4.97;1.33;;;16.70;99.90;;;;;;5050105;28;20044;-41
2022/07/10 11:30:21;;;;;;;3.33;1.00;;;16.80;99.90;;;;;;5047969;28;20056;-41
2022/07/10 11:32:48;;;;;;;2.90;1.08;;;16.80;99.90;;;;;;5064857;28;20101;-41
2022/07/10 11:35:13;;;;;;;9.32;1.30;;;16.80;99.90;;;;;;5064502;28;20074;-41
2022/07/10 11:37:53;;;;;;;4.43;1.20;;;16.80;99.90;;;;;;5050898;28;20044;-41
2022/07/10 11:40:19;;;;;;;3.55;1.00;;;16.80;99.90;;;;;;5064344;28;20107;-41
2022/07/10 11:42:49;;;;;;;6.90;1.30;;;16.90;99.90;;;;;;5061530;28;20584;-41
2022/07/10 11:45:32;;;;;;;6.47;0.90;;;16.90;99.90;;;;;;5063944;28;20099;-41
2022/07/10 11:47:59;;;;;;;7.18;1.17;;;16.80;99.90;;;;;;5050837;28;20743;-41
2022/07/10 11:50:26;;;;;;;6.35;1.17;;;16.90;99.90;;;;;;5068625;28;20036;-41
2022/07/10 11:52:53;;;;;;;4.25;1.50;;;16.90;99.90;;;;;;5065767;28;20055;-42
2022/07/10 11:55:23;;;;;;;2.65;0.93;;;16.90;99.90;;;;;;5058624;28;20117;-42
2022/07/10 11:57:50;;;;;;;8.82;1.40;;;16.90;99.90;;;;;;5043914;28;20064;-42
2022/07/10 12:00:27;;;;;;;8.45;1.35;;;16.90;99.90;;;;;;5061564;28;20146;-42
2022/07/10 12:02:54;;;;;;;7.05;1.35;;;16.90;99.90;;;;;;5055402;28;20041;-42
2022/07/10 12:05:35;;;;;;;9.77;1.73;;;17.00;99.90;;;;;;5061049;28;20129;-42
2022/07/10 12:08:02;;;;;;;8.27;1.30;;;17.00;99.90;;;;;;5048026;28;20406;-42
2022/07/10 12:10:29;;;;;;;8.15;1.63;;;17.00;99.90;;;;;;5055397;28;20056;-42
2022/07/10 12:13:06;;;;;;;7.75;1.60;;;17.00;99.90;;;;;;5058532;28;20737;-42
2022/07/10 12:15:34;;;;;;;4.40;1.40;;;17.10;99.90;;;;;;5058760;28;20072;-42
2022/07/10 12:17:59;;;;;;;4.38;1.38;;;17.10;99.90;;;;;;5044014;28;20532;-42
2022/07/10 12:20:26;;;;;;;5.82;1.48;;;17.10;99.90;;;;;;5059295;28;20640;-42
2022/07/10 12:22:54;;;;;;;3.58;1.10;;;17.10;99.90;;;;;;5067009;28;20039;-42
2022/07/10 12:25:23;;;;;;;4.38;1.05;;;17.20;99.90;;;;;;5065672;28;20059;-42
2022/07/10 12:27:49;;;;;;;3.72;0.80;;;17.30;99.90;;;;;;5051507;28;20075;-42
2022/07/10 12:30:15;;;;;;;3.50;0.95;;;17.30;99.90;;;;;;5060886;28;20056;-42
2022/07/10 12:32:40;;;;;;;4.53;0.90;;;17.30;99.90;;;;;;5064919;28;20074;-42
2022/07/10 12:35:14;;;;;;;6.60;1.08;;;17.20;99.90;;;;;;5066752;28;20087;-42
2022/07/10 12:37:48;;;;;;;2.83;1.13;;;17.20;99.90;;;;;;5052840;28;20052;-42
2022/07/10 12:40:30;;;;;;;4.82;1.10;;;17.20;99.90;;;;;;5067915;28;20041;-42
2022/07/10 12:43:04;;;;;;;5.68;1.48;;;17.00;99.90;;;;;;5062348;28;20101;-42
2022/07/10 12:45:29;;;;;;;5.63;1.33;;;17.10;99.90;;;;;;5053090;28;20072;-42
2022/07/10 12:47:55;;;;;;;5.03;1.30;;;17.00;99.90;;;;;;5046398;28;20072;-42
2022/07/10 12:50:24;;;;;;;5.55;1.00;;;16.90;99.90;;;;;;5065802;28;20051;-42
2022/07/10 12:52:49;;;;;;;6.63;1.38;;;16.80;99.90;;;;;;5066512;28;20514;-42
2022/07/10 12:55:18;;;;;;;5.15;1.50;;;16.70;99.90;;;;;;5067628;28;20049;-42
2022/07/10 12:57:55;;;;;;;5.43;1.30;;;16.60;99.90;;;;;;5050935;28;20125;-41
2022/07/10 13:00:31;;;;;;;5.32;1.55;;;16.60;99.90;;;;;;5052553;28;20060;-42